ICAO code: LHPR | IATA code: QGY | SITA: QGYAPXH | AFTN: LHPRZPZX

Időjárási adatok

METAR LHPR 241645Z AUTO 07004KT 0650 R30/0750N -DZ NCD 12/09 Q1034=
TAF LHPR 241415Z 2415/2424 VRB03KT 8000 NSC TEMPO 2418/2424 3000 BR
PROB30 TEMPO 2421/2424 0800 FG BKN002=
Szitálás, nem ónos, gyenge
2021-02-24 16:50:00 UTC
Hőmérséklet
11.9 °C
 
Harmatpont
8.7 °C
 
Rel. páratartalom
81%
 
QNH
1034.8 hPa
 
Szélsebesség
2.0 m/s
Max
2.1 m/s
Szélirány
70°
 
Csapadék (1 óra)
0.0 mm
 
Látótávolság
222 m
 
RVR
750 m RWY30
 
1. felhőréteg mennyisége
0 octa
 
1. felhőréteg alapja
m